Time;durP1;ratioP1;P1;durP2;ratioP2;P2;SDS_P1;SDS_P2;PMS_P1;PMS_P2;Temp;Humidity;BMP_temperature;BMP_pressure;BME280_temperature;BME280_humidity;BME280_pressure;Samples;Min_cycle;Max_cycle;Signal;HPM_P1;HPM_P2
2022/03/22 00:02:03;;;;;;;;;;;;;;;10.28;55.68;99423.34;5101662;28;19924;-60
2022/03/22 00:04:31;;;;;;;;;;;;;;;10.27;56.57;99421.69;5099083;28;19964;-60
2022/03/22 00:06:57;;;;;;;;;;;;;;;10.15;55.79;99428.81;5098130;28;19929;-60
2022/03/22 00:09:24;;;;;;;;;;;;;;;10.10;55.79;99430.50;5100055;28;19994;-60
2022/03/22 00:11:50;;;;;;;;;;;;;;;10.23;56.05;99433.88;5101616;28;19963;-60
2022/03/22 00:14:16;;;;;;;;;;;;;;;10.27;55.41;99439.59;5101505;28;19924;-60
2022/03/22 00:16:43;;;;;;;;;;;;;;;10.23;54.97;99431.22;5101594;28;19928;-60
2022/03/22 00:19:09;;;;;;;;;;;;;;;10.19;54.72;99434.53;5101637;28;20017;-60
2022/03/22 00:21:37;;;;;;;;;;;;;;;10.20;54.78;99437.00;5098190;28;20004;-60
2022/03/22 00:24:03;;;;;;;;;;;;;;;10.20;54.44;99437.00;5098308;28;19988;-60
2022/03/22 00:26:30;;;;;;;;;;;;;;;10.11;54.36;99435.63;5100583;28;19967;-59
2022/03/22 00:28:57;;;;;;;;;;;;;;;10.11;53.93;99440.97;5101485;28;20018;-59
2022/03/22 00:31:23;;;;;;;;;;;;;;;10.14;53.81;99437.91;5099861;28;19924;-58
2022/03/22 00:33:50;;;;;;;;;;;;;;;10.06;53.63;99443.47;5097980;28;20004;-60
2022/03/22 00:36:16;;;;;;;;;;;;;;;10.05;53.54;99443.72;5098542;28;19990;-59
2022/03/22 00:38:44;;;;;;;;;;;;;;;10.04;53.90;99439.41;5101395;28;19924;-59
2022/03/22 00:41:13;;;;;;;;;;;;;;;10.06;53.68;99437.31;5101547;28;19932;-59
2022/03/22 00:43:39;;;;;;;;;;;;;;;10.04;53.64;99442.06;5101343;28;19924;-59
2022/03/22 00:46:06;;;;;;;;;;;;;;;10.05;53.66;99433.03;5097867;28;19971;-60
2022/03/22 00:48:32;;;;;;;;;;;;;;;10.05;53.28;99438.38;5101040;28;19924;-60
2022/03/22 00:50:59;;;;;;;;;;;;;;;9.90;53.24;99438.75;5101471;28;20026;-60
2022/03/22 00:53:25;;;;;;;;;;;;;;;9.69;55.17;99429.28;5099435;28;19970;-59
2022/03/22 00:55:53;;;;;;;;;;;;;;;9.44;54.27;99425.81;5097736;28;19956;-59
2022/03/22 00:58:20;;;;;;;;;;;;;;;9.45;56.11;99426.66;5099113;28;19984;-58
2022/03/22 01:00:48;;;;;;;;;;;;;;;9.63;54.82;99432.00;5101099;28;19967;-59
2022/03/22 01:03:15;;;;;;;;;;;;;;;9.68;54.14;99438.34;5101167;28;19928;-59
2022/03/22 01:05:41;;;;;;;;;;;;;;;9.72;54.21;99428.84;5097579;28;20003;-60
2022/03/22 01:08:08;;;;;;;;;;;;;;;9.68;54.55;99433.00;5098004;28;19959;-60
2022/03/22 01:10:36;;;;;;;;;;;;;;;9.61;55.00;99434.09;5100872;28;19963;-60
2022/03/22 01:13:03;;;;;;;;;;;;;;;9.38;56.08;99426.69;5104795;28;20479;-59
2022/03/22 01:15:33;;;;;;;;;;;;;;;9.28;55.93;99431.72;5101524;28;19951;-60
2022/03/22 01:18:03;;;;;;;;;;;;;;;9.13;55.98;99433.88;5101523;28;19959;-60
2022/03/22 01:20:31;;;;;;;;;;;;;;;9.25;56.95;99428.69;5104147;28;19931;-59
2022/03/22 01:22:58;;;;;;;;;;;;;;;9.47;56.39;99430.72;5104951;28;19964;-59
2022/03/22 01:25:26;;;;;;;;;;;;;;;9.54;55.57;99431.50;5103392;28;19960;-60
2022/03/22 01:27:52;;;;;;;;;;;;;;;9.62;55.32;99427.75;5101239;28;19963;-59
2022/03/22 01:30:21;;;;;;;;;;;;;;;9.64;55.53;99420.31;5102357;28;19924;-60
2022/03/22 01:32:47;;;;;;;;;;;;;;;9.61;54.77;99426.91;5104607;28;19928;-59
2022/03/22 01:35:13;;;;;;;;;;;;;;;9.62;54.77;99425.84;5104519;28;19924;-59
2022/03/22 01:37:40;;;;;;;;;;;;;;;9.60;54.75;99429.78;5101352;28;19920;-60
2022/03/22 01:40:07;;;;;;;;;;;;;;;9.63;54.42;99424.00;5101416;28;19925;-59
2022/03/22 01:42:34;;;;;;;;;;;;;;;9.65;54.45;99417.44;5107979;28;20004;-59
2022/03/22 01:45:02;;;;;;;;;;;;;;;9.66;54.63;99418.25;5104706;28;19987;-59
2022/03/22 01:47:30;;;;;;;;;;;;;;;9.54;54.59;99409.31;5102212;28;19920;-59
2022/03/22 01:49:56;;;;;;;;;;;;;;;9.44;54.78;99414.38;5100872;28;19925;-59
2022/03/22 01:52:24;;;;;;;;;;;;;;;9.46;55.37;99407.78;5102437;28;19964;-59
2022/03/22 01:54:52;;;;;;;;;;;;;;;9.43;54.60;99402.88;5104157;28;19931;-59
2022/03/22 01:57:18;;;;;;;;;;;;;;;9.37;54.98;99406.44;5103268;28;19924;-59
2022/03/22 01:59:44;;;;;;;;;;;;;;;9.34;54.82;99401.53;5100740;28;19924;-59
2022/03/22 02:07:41;;;;;;;;;;;;;;;8.47;55.19;99406.84;5100651;28;19924;-59
2022/03/22 02:10:08;;;;;;;;;;;;;;;8.63;56.92;99407.16;5100687;28;19931;-59
2022/03/22 02:12:34;;;;;;;;;;;;;;;8.89;56.27;99395.50;5107274;28;19950;-59
2022/03/22 02:15:01;;;;;;;;;;;;;;;9.05;55.62;99389.66;5103627;28;19924;-59
2022/03/22 02:17:27;;;;;;;;;;;;;;;9.15;55.11;99391.84;5101784;28;19924;-59
2022/03/22 02:19:54;;;;;;;;;;;;;;;9.23;54.83;99391.56;5100253;28;20031;-59
2022/03/22 02:22:26;;;;;;;;;;;;;;;9.22;54.29;99395.28;5101444;28;19920;-58
2022/03/22 02:24:53;;;;;;;;;;;;;;;9.14;54.26;99392.88;5103195;28;19991;-58
2022/03/22 02:27:21;;;;;;;;;;;;;;;9.05;54.17;99395.00;5102338;28;19970;-60
2022/03/22 02:29:47;;;;;;;;;;;;;;;8.93;54.94;99386.06;5099943;28;19928;-60
2022/03/22 02:32:13;;;;;;;;;;;;;;;8.12;55.72;99387.72;5100348;28;19924;-59
2022/03/22 02:34:40;;;;;;;;;;;;;;;8.52;57.36;99394.53;5103240;28;19959;-60
2022/03/22 02:37:07;;;;;;;;;;;;;;;8.72;56.17;99386.44;5103260;28;19950;-60
2022/03/22 02:39:34;;;;;;;;;;;;;;;8.77;55.07;99388.44;5100445;28;19984;-60
2022/03/22 02:42:02;;;;;;;;;;;;;;;8.54;55.68;99395.13;5101814;28;20064;-59
2022/03/22 02:44:28;;;;;;;;;;;;;;;8.68;55.52;99387.88;5103319;28;20004;-57
2022/03/22 02:46:55;;;;;;;;;;;;;;;8.62;56.15;99389.56;5102867;28;19995;-60
2022/03/22 02:49:21;;;;;;;;;;;;;;;8.71;56.35;99387.44;5101627;28;20105;-59
2022/03/22 02:51:47;;;;;;;;;;;;;;;8.32;55.82;99399.16;5099370;28;20007;-60
2022/03/22 02:54:14;;;;;;;;;;;;;;;8.10;56.67;99387.13;5099753;28;19935;-58
2022/03/22 02:56:40;;;;;;;;;;;;;;;8.31;57.73;99394.84;5102997;28;19924;-58
2022/03/22 02:59:08;;;;;;;;;;;;;;;8.54;56.77;99397.00;5102844;28;19947;-58
2022/03/22 03:01:35;;;;;;;;;;;;;;;8.64;55.68;99403.47;5099730;28;19974;-58
2022/03/22 03:04:01;;;;;;;;;;;;;;;8.71;55.39;99405.28;5099505;28;19925;-58
2022/03/22 03:06:29;;;;;;;;;;;;;;;8.38;55.58;99403.63;5101620;28;19983;-58
2022/03/22 03:08:56;;;;;;;;;;;;;;;8.37;56.70;99409.97;5102885;28;19924;-58
2022/03/22 03:11:22;;;;;;;;;;;;;;;8.44;56.13;99402.78;5101176;28;19924;-58
2022/03/22 03:16:34;;;;;;;;;;;;;;;8.26;56.80;99410.59;5102095;28;19935;-58
2022/03/22 03:19:00;;;;;;;;;;;;;;;7.95;55.76;99408.66;5102484;28;19966;-58
2022/03/22 03:21:27;;;;;;;;;;;;;;;8.33;56.78;99414.06;5100423;28;19983;-58
2022/03/22 03:23:53;;;;;;;;;;;;;;;8.39;55.85;99407.06;5099151;28;19925;-58
2022/03/22 03:26:19;;;;;;;;;;;;;;;8.28;56.02;99410.41;5100254;28;19952;-58
2022/03/22 03:28:46;;;;;;;;;;;;;;;8.61;55.78;99403.06;5102577;28;19939;-58
2022/03/22 03:31:12;;;;;;;;;;;;;;;8.72;55.21;99407.72;5102313;28;19988;-58
2022/03/22 03:33:40;;;;;;;;;;;;;;;8.44;54.78;99416.09;5098984;28;19966;-58
2022/03/22 03:36:06;;;;;;;;;;;;;;;8.59;54.97;99410.47;5098624;28;19924;-59
2022/03/22 03:38:41;;;;;;;;;;;;;;;8.63;54.72;99411.69;5101407;28;19960;-59
2022/03/22 03:43:52;;;;;;;;;;;;;;;8.68;54.01;99409.19;5102310;28;19932;-59
2022/03/22 03:49:06;;;;;;;;;;;;;;;7.89;53.74;99414.81;5101124;28;19924;-59
2022/03/22 03:51:32;;;;;;;;;;;;;;;7.49;56.82;99415.91;5099178;28;19929;-59
2022/03/22 03:53:59;;;;;;;;;;;;;;;7.90;56.40;99415.63;5098583;28;19966;-59
2022/03/22 03:56:25;;;;;;;;;;;;;;;8.24;55.48;99412.66;5100468;28;20004;-59
2022/03/22 03:58:52;;;;;;;;;;;;;;;8.39;54.46;99409.72;5101951;28;19959;-59
2022/03/22 04:01:18;;;;;;;;;;;;;;;8.46;53.84;99407.88;5101192;28;19924;-59
2022/03/22 04:03:47;;;;;;;;;;;;;;;8.49;53.79;99405.59;5098236;28;19963;-59
2022/03/22 04:06:15;;;;;;;;;;;;;;;8.50;53.31;99407.25;5098560;28;20215;-59
2022/03/22 04:08:41;;;;;;;;;;;;;;;8.54;53.17;99412.97;5101591;28;19924;-59
2022/03/22 04:11:08;;;;;;;;;;;;;;;8.38;52.96;99406.28;5101861;28;19962;-59
2022/03/22 04:13:35;;;;;;;;;;;;;;;8.48;52.96;99408.50;5102132;28;19925;-59
2022/03/22 04:16:03;;;;;;;;;;;;;;;8.48;52.69;99403.97;5098049;28;19942;-59
2022/03/22 04:18:29;;;;;;;;;;;;;;;8.46;52.67;99410.53;5100630;28;19929;-59
2022/03/22 04:20:56;;;;;;;;;;;;;;;8.44;52.84;99415.25;5101530;28;19979;-59
2022/03/22 04:23:23;;;;;;;;;;;;;;;8.50;52.50;99407.25;5100143;28;19952;-59
2022/03/22 04:25:49;;;;;;;;;;;;;;;8.41;52.46;99413.84;5097915;28;19983;-59
2022/03/22 04:33:43;;;;;;;;;;;;;;;8.39;52.28;99415.88;5097904;28;19964;-59
2022/03/22 04:36:11;;;;;;;;;;;;;;;8.40;52.32;99414.03;5096864;28;19960;-59
2022/03/22 04:38:39;;;;;;;;;;;;;;;8.34;52.15;99422.88;5097952;28;19932;-58
2022/03/22 04:41:08;;;;;;;;;;;;;;;8.34;52.38;99418.38;5098023;28;19924;-58
2022/03/22 04:43:34;;;;;;;;;;;;;;;8.28;51.94;99423.72;5105301;28;19925;-58
2022/03/22 04:46:01;;;;;;;;;;;;;;;8.23;51.96;99416.34;5098147;28;19987;-58
2022/03/22 04:48:27;;;;;;;;;;;;;;;8.21;51.80;99422.91;5101856;28;19924;-58
2022/03/22 04:56:43;;;;;;;;;;;;;;;8.22;51.83;99425.34;5105598;28;19984;-58
2022/03/22 04:59:09;;;;;;;;;;;;;;;8.22;51.83;99429.84;5104544;28;19924;-59
2022/03/22 05:01:36;;;;;;;;;;;;;;;8.18;51.81;99424.13;5101964;28;19935;-58
2022/03/22 05:04:02;;;;;;;;;;;;;;;8.24;51.79;99428.63;5101759;28;19924;-59
2022/03/22 05:06:35;;;;;;;;;;;;;;;8.21;51.64;99423.72;5104169;28;19924;-58
2022/03/22 05:09:03;;;;;;;;;;;;;;;8.17;51.64;99427.81;5105286;28;19928;-58
2022/03/22 05:11:30;;;;;;;;;;;;;;;8.16;51.62;99431.53;5103013;28;19991;-58
2022/03/22 05:13:56;;;;;;;;;;;;;;;8.11;51.58;99441.97;5105114;28;19963;-59
2022/03/22 05:16:23;;;;;;;;;;;;;;;8.15;51.77;99441.34;5102962;28;20610;-59
2022/03/22 05:18:50;;;;;;;;;;;;;;;8.01;51.91;99430.97;5105164;28;19924;-58
2022/03/22 05:21:17;;;;;;;;;;;;;;;8.03;51.89;99448.34;5104469;28;20801;-59
2022/03/22 05:23:45;;;;;;;;;;;;;;;7.80;51.74;99442.66;5101694;28;19946;-58
2022/03/22 05:26:13;;;;;;;;;;;;;;;7.99;52.07;99443.63;5101629;28;19982;-58
2022/03/22 05:28:40;;;;;;;;;;;;;;;8.03;51.83;99447.53;5092793;28;19931;-59
2022/03/22 05:31:07;;;;;;;;;;;;;;;8.09;51.72;99444.03;5092743;28;19925;-59
2022/03/22 05:33:33;;;;;;;;;;;;;;;8.06;51.70;99449.75;5092819;28;19951;-59
2022/03/22 05:36:00;;;;;;;;;;;;;;;8.05;51.69;99450.78;5092667;28;19971;-58
2022/03/22 05:38:26;;;;;;;;;;;;;;;7.98;51.67;99452.66;5100404;28;19951;-59
2022/03/22 05:40:52;;;;;;;;;;;;;;;7.82;51.89;99459.25;5098688;28;19974;-58
2022/03/22 05:43:20;;;;;;;;;;;;;;;7.78;52.06;99449.22;5106392;28;19924;-58
2022/03/22 05:45:48;;;;;;;;;;;;;;;7.83;52.06;99454.75;5101221;28;19997;-60
2022/03/22 05:48:15;;;;;;;;;;;;;;;7.54;51.95;99446.19;5101447;28;19948;-59
2022/03/22 05:50:41;;;;;;;;;;;;;;;7.53;52.38;99457.00;5104669;28;19924;-59
2022/03/22 05:53:07;;;;;;;;;;;;;;;7.58;52.82;99455.38;5104420;28;19951;-59
2022/03/22 05:55:34;;;;;;;;;;;;;;;7.51;53.02;99451.91;5101521;28;19999;-59
2022/03/22 05:58:00;;;;;;;;;;;;;;;7.66;52.76;99453.53;5100695;28;19936;-59
2022/03/22 06:00:28;;;;;;;;;;;;;;;7.70;52.33;99457.41;5101670;28;19972;-59
2022/03/22 06:02:55;;;;;;;;;;;;;;;7.63;52.61;99451.28;5104005;28;19963;-59
2022/03/22 06:05:21;;;;;;;;;;;;;;;7.60;52.47;99453.34;5102393;28;19924;-59
2022/03/22 06:07:47;;;;;;;;;;;;;;;7.67;52.50;99452.50;5098892;28;19975;-59
2022/03/22 06:10:14;;;;;;;;;;;;;;;7.67;52.22;99463.16;5100467;28;19925;-59
2022/03/22 06:12:42;;;;;;;;;;;;;;;7.77;52.17;99459.03;5107349;28;19988;-59
2022/03/22 06:15:15;;;;;;;;;;;;;;;7.27;51.69;99476.44;5103857;28;19935;-59
2022/03/22 06:17:44;;;;;;;;;;;;;;;6.63;52.82;99475.28;5100192;28;19920;-59
2022/03/22 06:20:11;;;;;;;;;;;;;;;6.40;54.36;99473.78;5100637;28;19997;-59
2022/03/22 06:22:37;;;;;;;;;;;;;;;6.50;54.83;99466.25;5092004;28;20000;-59
2022/03/22 06:25:04;;;;;;;;;;;;;;;6.90;54.66;99471.69;5092200;28;19970;-59
2022/03/22 06:27:33;;;;;;;;;;;;;;;7.37;53.63;99463.56;5091690;28;19948;-59
2022/03/22 06:29:59;;;;;;;;;;;;;;;7.31;52.83;99464.38;5091864;28;19924;-59
2022/03/22 06:32:26;;;;;;;;;;;;;;;7.56;52.96;99473.38;5091600;28;19928;-59
2022/03/22 06:34:53;;;;;;;;;;;;;;;7.83;52.10;99468.03;5091623;28;19980;-59
2022/03/22 06:37:21;;;;;;;;;;;;;;;8.37;51.21;99463.22;5091581;28;19943;-59
2022/03/22 06:39:48;;;;;;;;;;;;;;;8.72;50.55;99465.50;5091688;28;19958;-59
2022/03/22 06:42:14;;;;;;;;;;;;;;;8.97;49.73;99471.72;5095150;28;20023;-59
2022/03/22 06:44:41;;;;;;;;;;;;;;;8.38;49.56;99470.19;5103585;28;19987;-59
2022/03/22 06:47:07;;;;;;;;;;;;;;;8.60;50.48;99466.16;5103500;28;19987;-60
2022/03/22 06:49:34;;;;;;;;;;;;;;;9.13;49.59;99471.19;5100404;28;19935;-59
2022/03/22 06:52:01;;;;;;;;;;;;;;;9.44;48.36;99462.38;5099878;28;19931;-59
2022/03/22 06:54:28;;;;;;;;;;;;;;;9.61;48.08;99466.09;5101759;28;19996;-59
2022/03/22 06:56:55;;;;;;;;;;;;;;;9.82;47.70;99464.88;5103007;28;19924;-59
2022/03/22 06:59:21;;;;;;;;;;;;;;;9.76;47.00;99470.06;5101866;28;19946;-59
2022/03/22 07:01:47;;;;;;;;;;;;;;;9.59;47.35;99460.97;5099465;28;19924;-59
2022/03/22 07:04:14;;;;;;;;;;;;;;;9.54;47.73;99468.81;5099706;28;19943;-59
2022/03/22 07:06:40;;;;;;;;;;;;;;;9.09;47.96;99470.00;5103022;28;19927;-60
2022/03/22 07:09:08;;;;;;;;;;;;;;;9.32;48.45;99467.56;5102974;28;19995;-59
2022/03/22 07:11:50;;;;;;;;;;;;;;;9.44;48.27;99471.16;5100058;28;19967;-59
2022/03/22 07:14:17;;;;;;;;;;;;;;;9.43;47.32;99460.72;5099837;28;20678;-59
2022/03/22 07:16:44;;;;;;;;;;;;;;;9.45;47.84;99469.31;5102737;28;19992;-60
2022/03/22 07:19:10;;;;;;;;;;;;;;;9.56;47.86;99472.09;5102595;28;19924;-58
2022/03/22 07:21:36;;;;;;;;;;;;;;;9.54;47.65;99468.81;5099412;28;19928;-59
2022/03/22 07:24:03;;;;;;;;;;;;;;;9.29;47.24;99470.66;5099498;28;20585;-59
2022/03/22 07:26:31;;;;;;;;;;;;;;;9.34;47.90;99465.53;5101829;28;19924;-58
2022/03/22 07:28:57;;;;;;;;;;;;;;;9.33;47.83;99463.88;5102877;28;19943;-59
2022/03/22 07:31:23;;;;;;;;;;;;;;;9.31;47.92;99473.94;5101231;28;19920;-59
2022/03/22 07:33:50;;;;;;;;;;;;;;;9.05;47.56;99474.13;5099127;28;19963;-59
2022/03/22 07:36:16;;;;;;;;;;;;;;;9.07;48.35;99474.72;5099443;28;19951;-59
2022/03/22 07:38:42;;;;;;;;;;;;;;;9.11;48.11;99473.25;5102169;28;19931;-58
2022/03/22 07:41:10;;;;;;;;;;;;;;;9.03;48.21;99476.19;5102524;28;19967;-59
2022/03/22 07:43:38;;;;;;;;;;;;;;;8.67;47.63;99477.59;5102910;28;19925;-60
2022/03/22 07:46:04;;;;;;;;;;;;;;;8.47;48.47;99481.41;5098622;28;19970;-59
2022/03/22 07:48:31;;;;;;;;;;;;;;;8.65;48.87;99466.34;5101543;28;20241;-59
2022/03/22 07:53:42;;;;;;;;;;;;;;;8.63;48.84;99483.59;5098551;28;20454;-59
2022/03/22 07:56:09;;;;;;;;;;;;;;;8.39;49.04;99485.09;5098765;28;19975;-59
2022/03/22 07:58:35;;;;;;;;;;;;;;;8.52;49.30;99474.41;5101608;28;20813;-60
2022/03/22 08:01:03;;;;;;;;;;;;;;;8.62;49.13;99482.75;5102005;28;19963;-58
2022/03/22 08:03:29;;;;;;;;;;;;;;;8.79;48.93;99480.41;5099855;28;19931;-59
2022/03/22 08:05:56;;;;;;;;;;;;;;;8.60;48.90;99479.47;5098537;28;19939;-60
2022/03/22 08:08:22;;;;;;;;;;;;;;;8.62;49.19;99477.44;5099660;28;19920;-59
2022/03/22 08:10:49;;;;;;;;;;;;;;;8.59;49.37;99477.88;5101931;28;19931;-59
2022/03/22 08:13:15;;;;;;;;;;;;;;;8.51;49.12;99494.06;5105459;28;19992;-59
2022/03/22 08:15:41;;;;;;;;;;;;;;;8.37;49.23;99481.84;5098179;28;19924;-59
2022/03/22 08:18:10;;;;;;;;;;;;;;;8.50;49.52;99484.47;5098311;28;19964;-59
2022/03/22 08:20:37;;;;;;;;;;;;;;;8.33;48.96;99480.63;5101574;28;19983;-59
2022/03/22 08:23:04;;;;;;;;;;;;;;;8.27;48.41;99477.94;5101372;28;20403;-59
2022/03/22 08:25:31;;;;;;;;;;;;;;;8.25;48.66;99482.66;5099102;28;19967;-59
2022/03/22 08:27:59;;;;;;;;;;;;;;;8.18;47.48;99480.03;5104614;28;19967;-59
2022/03/22 08:30:26;;;;;;;;;;;;;;;8.25;48.11;99488.81;5099933;28;19966;-59
2022/03/22 08:32:54;;;;;;;;;;;;;;;8.13;46.79;99483.31;5098153;28;19964;-59
2022/03/22 08:35:23;;;;;;;;;;;;;;;8.30;47.70;99481.03;5099189;28;19987;-59
2022/03/22 08:37:50;;;;;;;;;;;;;;;8.38;47.25;99483.50;5101452;28;19926;-59
2022/03/22 08:40:16;;;;;;;;;;;;;;;8.53;47.88;99473.38;5101227;28;19963;-60
2022/03/22 08:42:46;;;;;;;;;;;;;;;8.49;46.20;99471.34;5102126;28;19928;-59
2022/03/22 08:45:13;;;;;;;;;;;;;;;8.52;46.58;99471.75;5101815;28;20003;-58
2022/03/22 08:47:40;;;;;;;;;;;;;;;8.64;47.05;99472.72;5098090;28;19924;-59
2022/03/22 08:50:07;;;;;;;;;;;;;;;8.77;47.36;99471.00;5098106;28;19956;-58
2022/03/22 08:52:36;;;;;;;;;;;;;;;8.89;46.56;99466.63;5100980;28;19920;-60
2022/03/22 08:55:03;;;;;;;;;;;;;;;8.99;45.63;99469.66;5101718;28;19924;-59
2022/03/22 08:57:29;;;;;;;;;;;;;;;9.00;46.67;99461.47;5099142;28;19924;-59
2022/03/22 08:59:55;;;;;;;;;;;;;;;9.14;46.29;99467.50;5097938;28;20004;-59
2022/03/22 09:02:21;;;;;;;;;;;;;;;8.88;44.30;99462.34;5098991;28;19924;-58
2022/03/22 09:07:32;;;;;;;;;;;;;;;9.08;42.71;99457.69;5098802;28;19931;-58
2022/03/22 09:09:59;;;;;;;;;;;;;;;9.09;44.59;99456.69;5097768;28;19983;-58
2022/03/22 09:12:26;;;;;;;;;;;;;;;9.21;42.72;99452.28;5103178;28;19985;-59
2022/03/22 09:14:53;;;;;;;;;;;;;;;9.18;44.21;99452.72;5100880;28;19928;-60
2022/03/22 09:17:19;;;;;;;;;;;;;;;9.31;42.00;99447.28;5100027;28;19967;-60
2022/03/22 09:19:46;;;;;;;;;;;;;;;9.31;43.09;99446.47;5097632;28;19992;-59
2022/03/22 09:22:13;;;;;;;;;;;;;;;9.45;38.78;99443.47;5097815;28;19939;-59
2022/03/22 09:24:39;;;;;;;;;;;;;;;9.51;38.01;99447.94;5089371;28;19924;-58
2022/03/22 09:27:07;;;;;;;;;;;;;;;9.20;41.43;99440.78;5089394;28;19989;-58
2022/03/22 09:29:33;;;;;;;;;;;;;;;9.36;39.91;99434.13;5089314;28;20440;-60
2022/03/22 09:32:00;;;;;;;;;;;;;;;9.21;40.42;99433.63;5089251;28;20011;-58
2022/03/22 09:34:28;;;;;;;;;;;;;;;9.25;41.09;99437.50;5089119;28;19964;-59
2022/03/22 09:36:54;;;;;;;;;;;;;;;9.39;38.68;99432.84;5092871;28;19971;-60
2022/03/22 09:39:21;;;;;;;;;;;;;;;9.46;38.62;99426.44;5092668;28;19979;-59
2022/03/22 09:41:48;;;;;;;;;;;;;;;9.72;38.32;99439.53;5092830;28;20289;-59
2022/03/22 09:44:16;;;;;;;;;;;;;;;9.87;36.94;99433.03;5104493;28;19925;-59
2022/03/22 09:46:45;;;;;;;;;;;;;;;9.95;36.48;99430.88;5103244;28;19996;-59
2022/03/22 09:49:11;;;;;;;;;;;;;;;9.97;36.24;99425.31;5103562;28;20030;-60
2022/03/22 09:51:48;;;;;;;;;;;;;;;9.98;37.06;99432.28;5100948;28;19928;-59
2022/03/22 09:54:16;;;;;;;;;;;;;;;10.11;36.10;99426.81;5101148;28;19986;-59
2022/03/22 09:56:43;;;;;;;;;;;;;;;10.17;37.04;99426.78;5104269;28;19920;-59
2022/03/22 09:59:09;;;;;;;;;;;;;;;10.41;35.22;99421.53;5104386;28;19983;-59
2022/03/22 10:01:37;;;;;;;;;;;;;;;10.48;36.27;99423.09;5099765;28;19980;-59
2022/03/22 10:04:05;;;;;;;;;;;;;;;10.50;37.48;99417.50;5100806;28;19980;-59
2022/03/22 10:06:33;;;;;;;;;;;;;;;10.76;36.93;99409.97;5103224;28;20011;-60
2022/03/22 10:08:59;;;;;;;;;;;;;;;10.73;36.05;99415.78;5104230;28;19928;-59
2022/03/22 10:11:36;;;;;;;;;;;;;;;10.94;33.83;99409.09;5102288;28;19987;-59
2022/03/22 10:14:03;;;;;;;;;;;;;;;11.02;33.91;99406.06;5104150;28;19924;-58
2022/03/22 10:16:29;;;;;;;;;;;;;;;11.08;33.91;99401.69;5102672;28;19983;-59
2022/03/22 10:18:57;;;;;;;;;;;;;;;11.16;33.47;99404.84;5103974;28;19928;-59
2022/03/22 10:21:23;;;;;;;;;;;;;;;11.15;33.65;99399.69;5102326;28;19987;-58
2022/03/22 10:23:51;;;;;;;;;;;;;;;11.14;33.32;99400.78;5100551;28;19924;-59
2022/03/22 10:26:17;;;;;;;;;;;;;;;11.09;33.46;99392.59;5101184;28;19958;-58
2022/03/22 10:28:53;;;;;;;;;;;;;;;11.24;33.78;99395.66;5103539;28;19984;-59
2022/03/22 10:31:20;;;;;;;;;;;;;;;11.23;33.55;99394.03;5102756;28;19924;-59
2022/03/22 10:33:50;;;;;;;;;;;;;;;11.23;33.76;99380.66;5099939;28;19932;-58
2022/03/22 10:36:19;;;;;;;;;;;;;;;11.23;34.27;99386.81;5100476;28;19924;-59
2022/03/22 10:38:53;;;;;;;;;;;;;;;11.26;33.97;99391.69;5103802;28;19987;-59
2022/03/22 10:41:24;;;;;;;;;;;;;;;11.38;34.48;99386.38;5102761;28;19931;-60
2022/03/22 10:44:00;;;;;;;;;;;;;;;11.45;34.83;99379.03;5103702;28;19946;-59
2022/03/22 10:46:28;;;;;;;;;;;;;;;11.59;34.92;99377.75;5100923;28;19924;-60
2022/03/22 10:49:01;;;;;;;;;;;;;;;11.66;33.68;99373.09;5103638;28;19923;-60
2022/03/22 10:51:33;;;;;;;;;;;;;;;11.74;34.31;99380.78;5101402;28;19920;-59
2022/03/22 10:53:59;;;;;;;;;;;;;;;11.73;34.33;99381.03;5099896;28;19928;-60
2022/03/22 10:56:26;;;;;;;;;;;;;;;11.72;34.10;99379.41;5101575;28;19930;-60
2022/03/22 10:58:54;;;;;;;;;;;;;;;11.89;33.43;99373.09;5103189;28;19930;-59
2022/03/22 11:01:21;;;;;;;;;;;;;;;13.09;40.54;99377.53;5101798;28;19951;-60
2022/03/22 11:03:48;;;;;;;;;;;;;;;13.28;38.81;99374.34;5099713;28;20052;-60
2022/03/22 11:06:16;;;;;;;;;;;;;;;13.79;38.07;99367.84;5100175;28;20544;-60
2022/03/22 11:08:44;;;;;;;;;;;;;;;14.56;40.96;99373.91;5102929;28;19932;-60
2022/03/22 11:11:11;;;;;;;;;;;;;;;15.01;41.93;99368.16;5103115;28;19920;-59
2022/03/22 11:13:37;;;;;;;;;;;;;;;14.79;34.86;99356.66;5103056;28;19924;-60
2022/03/22 11:16:07;;;;;;;;;;;;;;;15.33;40.62;99361.94;5099303;28;19946;-60
2022/03/22 11:18:34;;;;;;;;;;;;;;;15.34;39.10;99352.81;5102310;28;19928;-60
2022/03/22 11:21:01;;;;;;;;;;;;;;;14.10;32.28;99363.69;5102787;28;19935;-59
2022/03/22 11:23:28;;;;;;;;;;;;;;;15.06;40.54;99354.75;5100650;28;19948;-59
2022/03/22 11:26:06;;;;;;;;;;;;;;;14.91;33.91;99359.19;5099214;28;19984;-59
2022/03/22 11:28:34;;;;;;;;;;;;;;;14.19;33.41;99354.13;5102104;28;19928;-59
2022/03/22 11:31:00;;;;;;;;;;;;;;;14.13;33.81;99352.44;5102300;28;19999;-60
2022/03/22 11:36:14;;;;;;;;;;;;;;;14.45;31.34;99350.66;5099051;28;19921;-60
2022/03/22 11:38:42;;;;;;;;;;;;;;;14.01;31.73;99349.88;5098911;28;19925;-60
2022/03/22 11:44:08;;;;;;;;;;;;;;;14.94;34.76;99337.16;5102692;28;19932;-59
2022/03/22 11:46:35;;;;;;;;;;;;;;;14.58;29.92;99346.75;5101629;28;19924;-59
2022/03/22 11:49:11;;;;;;;;;;;;;;;14.46;29.91;99335.34;5102176;28;19931;-59
2022/03/22 11:51:47;;;;;;;;;;;;;;;14.88;31.42;99335.50;5098576;28;19928;-60
2022/03/22 11:54:13;;;;;;;;;;;;;;;14.80;31.19;99326.00;5098682;28;19931;-60
2022/03/22 11:56:47;;;;;;;;;;;;;;;15.57;35.12;99320.13;5102083;28;19959;-60
2022/03/22 11:59:15;;;;;;;;;;;;;;;15.11;29.30;99325.19;5101279;28;19966;-59
2022/03/22 12:01:41;;;;;;;;;;;;;;;14.75;31.31;99317.91;5098592;28;20146;-59
2022/03/22 12:04:15;;;;;;;;;;;;;;;15.16;33.01;99315.53;5098574;28;19929;-60
2022/03/22 12:06:42;;;;;;;;;;;;;;;15.44;35.15;99325.97;5089812;28;19935;-59
2022/03/22 12:09:09;;;;;;;;;;;;;;;15.27;30.83;99315.34;5089957;28;19935;-60
2022/03/22 12:11:35;;;;;;;;;;;;;;;14.80;29.09;99315.25;5089908;28;19924;-60
2022/03/22 12:14:04;;;;;;;;;;;;;;;14.97;29.52;99315.13;5101975;28;19963;-59
2022/03/22 12:16:30;;;;;;;;;;;;;;;15.08;30.97;99306.06;5100824;28;19947;-60
2022/03/22 12:18:59;;;;;;;;;;;;;;;15.00;29.79;99301.16;5100866;28;21303;-60
2022/03/22 12:21:26;;;;;;;;;;;;;;;15.34;30.46;99302.47;5099946;28;20023;-60
2022/03/22 12:23:54;;;;;;;;;;;;;;;15.91;32.43;99294.44;5097795;28;19973;-59
2022/03/22 12:26:21;;;;;;;;;;;;;;;15.43;30.61;99292.03;5099111;28;19928;-60
2022/03/22 12:28:48;;;;;;;;;;;;;;;15.64;30.91;99286.50;5101502;28;19975;-59
2022/03/22 12:31:20;;;;;;;;;;;;;;;15.90;32.48;99287.44;5101397;28;19920;-58
2022/03/22 12:33:50;;;;;;;;;;;;;;;16.15;31.79;99284.81;5098323;28;19951;-58
2022/03/22 12:36:16;;;;;;;;;;;;;;;16.47;32.59;99278.41;5098569;28;19920;-59
2022/03/22 12:38:43;;;;;;;;;;;;;;;16.42;33.07;99281.09;5101680;28;19956;-58
2022/03/22 12:41:09;;;;;;;;;;;;;;;16.41;32.47;99276.78;5101835;28;19983;-60
2022/03/22 12:43:36;;;;;;;;;;;;;;;16.36;33.08;99279.47;5102370;28;20015;-60
2022/03/22 12:46:03;;;;;;;;;;;;;;;16.47;30.56;99270.31;5097995;28;19924;-60
2022/03/22 12:48:31;;;;;;;;;;;;;;;15.88;29.32;99265.31;5100420;28;19924;-59
2022/03/22 12:50:57;;;;;;;;;;;;;;;15.52;27.29;99269.75;5101229;28;19950;-59
2022/03/22 12:53:23;;;;;;;;;;;;;;;15.24;27.92;99264.72;5099869;28;19979;-59
2022/03/22 12:55:49;;;;;;;;;;;;;;;14.94;27.81;99261.84;5097573;28;19924;-60
2022/03/22 12:58:16;;;;;;;;;;;;;;;15.06;27.86;99270.53;5097029;28;20011;-59
2022/03/22 13:00:43;;;;;;;;;;;;;;;15.05;27.70;99248.19;5101087;28;19924;-59
2022/03/22 13:03:10;;;;;;;;;;;;;;;15.07;28.08;99254.13;5101277;28;19983;-60
2022/03/22 13:05:42;;;;;;;;;;;;;;;14.96;27.59;99243.56;5097959;28;19994;-59
2022/03/22 13:08:14;;;;;;;;;;;;;;;14.82;28.58;99253.16;5097965;28;19935;-60
2022/03/22 13:15:01;;;;;;;;;;;;;;;15.11;27.17;99241.78;5102339;28;19920;-60
2022/03/22 13:16:18;;;;;;;;;;;;;;;15.07;27.49;99235.28;5092759;28;19925;-60
2022/03/22 13:18:47;;;;;;;;;;;;;;;14.97;28.37;99235.25;5100987;28;19988;-60
2022/03/22 13:21:16;;;;;;;;;;;;;;;15.46;29.08;99232.28;5101180;28;19924;-59
2022/03/22 13:23:42;;;;;;;;;;;;;;;15.79;29.83;99233.78;5104506;28;19936;-60
2022/03/22 13:26:15;;;;;;;;;;;;;;;15.99;28.02;99225.75;5104690;28;19930;-59
2022/03/22 13:28:41;;;;;;;;;;;;;;;16.42;31.54;99224.47;5092584;28;19935;-59
2022/03/22 13:31:08;;;;;;;;;;;;;;;16.52;31.00;99219.09;5092269;28;19966;-60
2022/03/22 13:33:35;;;;;;;;;;;;;;;16.72;29.99;99222.63;5092587;28;19929;-60